createdAt,value
2023-03-20T00:02:24.205Z,15.75
2023-03-20T00:04:55.948Z,21.25
2023-03-20T00:07:23.694Z,19.00
2023-03-20T00:10:02.795Z,14.75
2023-03-20T00:12:50.465Z,14.25
2023-03-20T00:15:33.549Z,23.50
2023-03-20T00:18:01.199Z,20.00
2023-03-20T00:20:31.701Z,6.00
2023-03-20T00:22:59.805Z,16.50
2023-03-20T00:25:28.495Z,13.25
2023-03-20T00:27:56.716Z,13.00
2023-03-20T00:30:29.267Z,15.75
2023-03-20T00:32:59.039Z,15.25
2023-03-20T00:35:32.123Z,13.00
2023-03-20T00:38:03.911Z,19.25
2023-03-20T00:40:32.076Z,20.75
2023-03-20T00:43:03.580Z,18.25
2023-03-20T00:45:34.577Z,19.75
2023-03-20T00:48:03.757Z,16.25
2023-03-20T00:50:31.946Z,17.50
2023-03-20T00:52:59.584Z,18.25
2023-03-20T00:55:29.587Z,19.50
2023-03-20T00:58:03.044Z,19.75
2023-03-20T01:00:36.550Z,29.25
2023-03-20T01:03:14.486Z,23.50
2023-03-20T01:05:43.321Z,21.50
2023-03-20T01:08:15.116Z,23.25
2023-03-20T01:10:44.637Z,13.25
2023-03-20T01:13:32.640Z,15.00
2023-03-20T01:16:00.644Z,15.50
2023-03-20T01:18:28.376Z,14.50
2023-03-20T01:20:55.979Z,18.00
2023-03-20T01:23:24.591Z,18.00
2023-03-20T01:25:54.802Z,14.50
2023-03-20T01:28:24.443Z,10.75
2023-03-20T01:30:52.763Z,12.75
2023-03-20T01:33:40.084Z,11.25
2023-03-20T01:36:11.962Z,15.25
2023-03-20T01:38:40.590Z,15.75
2023-03-20T01:41:13.545Z,13.00
2023-03-20T01:43:43.282Z,21.00
2023-03-20T01:46:18.629Z,20.25
2023-03-20T01:48:52.341Z,20.25
2023-03-20T01:51:22.927Z,11.00
2023-03-20T01:53:55.031Z,19.75
2023-03-20T01:56:33.013Z,16.25
2023-03-20T01:59:09.662Z,24.50
2023-03-20T02:01:38.375Z,18.00
2023-03-20T02:04:09.222Z,15.75
2023-03-20T02:06:38.678Z,15.75
2023-03-20T02:09:08.920Z,20.00
2023-03-20T02:11:38.391Z,18.50
2023-03-20T02:14:07.153Z,19.25
2023-03-20T02:16:35.607Z,16.00
2023-03-20T02:19:06.526Z,13.00
2023-03-20T02:21:49.130Z,13.75
2023-03-20T02:24:48.629Z,19.25
2023-03-20T02:27:43.299Z,14.50
2023-03-20T02:30:55.725Z,14.00
2023-03-20T02:33:53.794Z,11.75
2023-03-20T02:36:35.886Z,6.00
2023-03-20T02:39:15.252Z,14.75
2023-03-20T02:41:47.894Z,13.25
2023-03-20T02:44:36.433Z,11.25
2023-03-20T02:47:06.872Z,11.00
2023-03-20T02:49:52.143Z,12.75
2023-03-20T02:52:32.566Z,14.00
2023-03-20T02:55:19.011Z,11.75
2023-03-20T02:58:03.408Z,9.25
2023-03-20T03:00:40.002Z,12.00
2023-03-20T03:03:20.776Z,15.00
2023-03-20T03:05:55.744Z,10.75
2023-03-20T03:08:28.751Z,14.50
2023-03-20T03:11:07.502Z,12.75
2023-03-20T03:13:56.770Z,16.00
2023-03-20T03:16:30.740Z,16.25
2023-03-20T03:19:05.246Z,12.25
2023-03-20T03:21:35.502Z,11.25
2023-03-20T03:24:05.351Z,11.00
2023-03-20T03:26:39.953Z,12.00
2023-03-20T03:29:15.814Z,13.25
2023-03-20T03:31:46.177Z,17.25
2023-03-20T03:34:17.860Z,15.00
2023-03-20T03:37:06.717Z,20.00
2023-03-20T03:39:51.189Z,15.50
2023-03-20T03:42:31.262Z,15.25
2023-03-20T03:45:02.412Z,11.25
2023-03-20T03:47:40.308Z,15.00
2023-03-20T03:50:17.051Z,14.25
2023-03-20T03:52:47.049Z,10.50
2023-03-20T03:55:39.617Z,15.50
2023-03-20T03:58:22.731Z,10.25
2023-03-20T04:00:52.549Z,16.00
2023-03-20T04:03:24.436Z,14.75
2023-03-20T04:05:56.343Z,15.00
2023-03-20T04:08:23.815Z,14.00
2023-03-20T04:10:51.457Z,13.75
2023-03-20T04:13:19.172Z,13.00
2023-03-20T04:15:46.790Z,13.75
2023-03-20T04:18:19.695Z,10.50
2023-03-20T04:20:47.671Z,11.25
2023-03-20T04:23:15.879Z,15.00
2023-03-20T04:25:44.871Z,17.00
2023-03-20T04:28:12.385Z,16.50
2023-03-20T04:30:40.014Z,12.00
2023-03-20T04:33:08.523Z,14.75
2023-03-20T04:35:36.653Z,11.25
2023-03-20T04:38:05.411Z,16.25
2023-03-20T04:40:33.615Z,19.00
2023-03-20T04:43:01.118Z,12.75
2023-03-20T04:45:28.583Z,17.00
2023-03-20T04:47:56.260Z,18.50
2023-03-20T04:50:24.297Z,18.75
2023-03-20T04:52:51.742Z,18.00
2023-03-20T04:55:22.755Z,16.25
2023-03-20T04:57:51.043Z,19.75
2023-03-20T05:00:19.013Z,22.25
2023-03-20T05:02:47.005Z,22.00
2023-03-20T05:05:14.402Z,22.25
2023-03-20T05:07:44.035Z,20.25
2023-03-20T05:10:12.080Z,20.25
2023-03-20T05:12:39.476Z,24.00
2023-03-20T05:15:09.060Z,23.25
2023-03-20T05:17:36.864Z,19.25
2023-03-20T05:20:05.310Z,23.25
2023-03-20T05:22:33.245Z,20.75
2023-03-20T05:25:01.410Z,24.25
2023-03-20T05:27:30.328Z,20.00
2023-03-20T05:29:57.890Z,12.50
2023-03-20T05:32:25.546Z,23.00
2023-03-20T05:34:53.098Z,25.50
2023-03-20T05:37:21.317Z,21.75
2023-03-20T05:39:48.691Z,27.25
2023-03-20T05:42:16.236Z,23.75
2023-03-20T05:44:43.863Z,23.75
2023-03-20T05:47:11.661Z,21.00
2023-03-20T05:49:39.016Z,20.50
2023-03-20T05:52:08.261Z,24.25
2023-03-20T05:54:37.122Z,25.50
2023-03-20T05:57:10.000Z,23.50
2023-03-20T05:59:37.531Z,27.00
2023-03-20T06:02:04.893Z,24.00
2023-03-20T06:04:37.424Z,21.75
2023-03-20T06:07:06.402Z,21.25
2023-03-20T06:09:34.516Z,27.50
2023-03-20T06:12:02.037Z,28.75
2023-03-20T06:14:29.823Z,29.00
2023-03-20T06:16:58.977Z,28.25
2023-03-20T06:19:26.732Z,26.25
2023-03-20T06:21:54.196Z,23.25
2023-03-20T06:24:21.759Z,30.25
2023-03-20T06:26:49.689Z,28.50
2023-03-20T06:29:17.447Z,23.00
2023-03-20T06:31:46.875Z,28.00
2023-03-20T06:34:14.989Z,24.75
2023-03-20T06:36:47.066Z,24.75
2023-03-20T06:39:14.962Z,27.75
2023-03-20T06:41:42.613Z,18.00
2023-03-20T06:44:10.950Z,26.00
2023-03-20T06:46:38.468Z,25.75
2023-03-20T06:49:09.519Z,33.25
2023-03-20T06:51:37.607Z,34.00
2023-03-20T06:54:05.191Z,29.00
2023-03-20T06:56:33.005Z,26.50
2023-03-20T06:59:00.465Z,24.75
2023-03-20T07:01:28.748Z,21.50
2023-03-20T07:03:56.275Z,25.50
2023-03-20T07:06:23.762Z,27.00
2023-03-20T07:08:53.005Z,28.50
2023-03-20T07:11:21.160Z,17.75
2023-03-20T07:13:50.756Z,29.25
2023-03-20T07:16:18.418Z,29.00
2023-03-20T07:18:45.929Z,26.75
2023-03-20T07:21:20.431Z,24.25
2023-03-20T07:23:49.196Z,23.25
2023-03-20T07:26:17.113Z,27.00
2023-03-20T07:28:45.310Z,32.50
2023-03-20T07:31:25.574Z,31.00
2023-03-20T07:33:53.126Z,28.50
2023-03-20T07:36:21.428Z,27.25
2023-03-20T07:38:48.865Z,27.00
2023-03-20T07:41:16.905Z,48.25
2023-03-20T07:43:44.912Z,26.50
2023-03-20T07:46:15.574Z,28.75
2023-03-20T07:48:43.342Z,27.00
2023-03-20T07:51:10.943Z,31.50
2023-03-20T07:53:41.214Z,28.50
2023-03-20T07:56:09.527Z,31.50
2023-03-20T07:58:37.596Z,33.25
2023-03-20T08:01:05.379Z,28.25
2023-03-20T08:03:32.995Z,27.50
2023-03-20T08:06:13.304Z,42.25
2023-03-20T08:08:41.128Z,31.25
2023-03-20T08:11:10.100Z,34.25
2023-03-20T08:13:37.922Z,33.00
2023-03-20T08:16:06.160Z,32.50
2023-03-20T08:18:36.146Z,36.50
2023-03-20T08:21:05.260Z,32.75
2023-03-20T08:23:32.794Z,35.00
2023-03-20T08:26:01.644Z,28.75
2023-03-20T08:28:46.231Z,28.25
2023-03-20T08:31:15.465Z,27.00
2023-03-20T08:33:43.582Z,34.50
2023-03-20T08:36:11.672Z,32.50
2023-03-20T08:38:39.529Z,31.75
2023-03-20T08:41:07.813Z,24.75
2023-03-20T08:43:36.511Z,28.00
2023-03-20T08:46:04.524Z,33.75
2023-03-20T08:48:33.106Z,25.00
2023-03-20T08:51:08.429Z,33.00
2023-03-20T08:53:36.981Z,30.50
2023-03-20T08:56:05.088Z,25.75
2023-03-20T08:58:32.703Z,28.75
2023-03-20T09:01:05.489Z,27.25
2023-03-20T09:03:33.010Z,23.75
2023-03-20T09:06:01.895Z,29.00
2023-03-20T09:08:29.834Z,30.75
2023-03-20T09:11:00.541Z,21.25
2023-03-20T09:13:28.555Z,30.25
2023-03-20T09:15:56.973Z,26.00
2023-03-20T09:18:25.504Z,28.00
2023-03-20T09:20:53.195Z,23.50
2023-03-20T09:23:20.664Z,28.75
2023-03-20T09:25:51.622Z,30.75
2023-03-20T09:28:19.197Z,26.00
2023-03-20T09:30:48.223Z,24.00
2023-03-20T09:33:16.137Z,24.75
2023-03-20T09:35:43.956Z,23.25
2023-03-20T09:38:12.461Z,19.50
2023-03-20T09:40:59.022Z,19.50
2023-03-20T09:43:53.905Z,24.50
2023-03-20T09:46:49.502Z,25.00
2023-03-20T09:49:37.588Z,26.00
2023-03-20T09:52:13.013Z,22.75
2023-03-20T09:54:53.959Z,24.50
2023-03-20T09:57:24.547Z,25.25
2023-03-20T09:59:57.721Z,30.75
2023-03-20T10:02:45.988Z,27.25
2023-03-20T10:05:39.061Z,25.00
2023-03-20T10:08:16.148Z,21.75
2023-03-20T10:10:43.858Z,22.50
2023-03-20T10:13:26.483Z,17.50
2023-03-20T10:16:02.847Z,24.25
2023-03-20T10:18:35.608Z,23.50
2023-03-20T10:21:13.795Z,23.50
2023-03-20T10:23:59.029Z,23.00
2023-03-20T10:26:28.735Z,22.50
2023-03-20T10:29:19.519Z,21.00
2023-03-20T10:32:01.193Z,23.50
2023-03-20T10:34:49.136Z,21.00
2023-03-20T10:37:32.583Z,19.33
2023-03-20T10:40:23.586Z,25.50
2023-03-20T10:42:54.294Z,22.75
2023-03-20T10:45:27.856Z,25.50
2023-03-20T10:47:58.938Z,24.75
2023-03-20T10:50:33.844Z,18.67
2023-03-20T10:53:03.309Z,24.00
2023-03-20T10:55:38.143Z,25.25
2023-03-20T10:58:18.562Z,22.67
2023-03-20T11:00:56.272Z,25.33
2023-03-20T11:03:29.612Z,27.33
2023-03-20T11:06:09.732Z,24.33
2023-03-20T11:08:49.379Z,23.33
2023-03-20T11:11:26.704Z,22.75
2023-03-20T11:13:54.923Z,26.00
2023-03-20T11:16:36.824Z,25.00
2023-03-20T11:19:07.553Z,20.33
2023-03-20T11:21:57.791Z,26.00
2023-03-20T11:24:46.464Z,14.33
2023-03-20T11:27:20.306Z,20.33
2023-03-20T11:29:51.284Z,23.67
2023-03-20T11:32:42.305Z,26.00
2023-03-20T11:35:19.343Z,27.00
2023-03-20T11:37:51.277Z,24.33
2023-03-20T11:40:44.940Z,25.67
2023-03-20T11:43:18.835Z,22.67
2023-03-20T11:45:50.767Z,27.33
2023-03-20T11:48:45.941Z,30.75
2023-03-20T11:51:20.159Z,30.67
2023-03-20T11:54:01.886Z,25.00
2023-03-20T11:56:33.395Z,29.00
2023-03-20T11:59:10.585Z,21.67
2023-03-20T12:01:44.950Z,23.33
2023-03-20T12:04:19.291Z,26.33
2023-03-20T12:07:00.839Z,25.67
2023-03-20T12:09:42.867Z,24.33
2023-03-20T12:12:19.087Z,27.00
2023-03-20T12:15:05.503Z,24.00
2023-03-20T12:17:50.071Z,22.00
2023-03-20T12:20:37.041Z,23.25
2023-03-20T12:23:11.302Z,27.00
2023-03-20T12:25:50.204Z,26.00
2023-03-20T12:28:32.512Z,29.00
2023-03-20T12:30:59.937Z,29.75
2023-03-20T12:33:49.959Z,24.75
2023-03-20T12:36:28.940Z,29.00
2023-03-20T12:38:57.233Z,22.50
2023-03-20T12:42:07.414Z,29.50
2023-03-20T12:44:47.308Z,26.75
2023-03-20T12:47:44.965Z,28.50
2023-03-20T12:50:36.231Z,23.50
2023-03-20T12:53:26.703Z,29.00
2023-03-20T12:56:00.769Z,21.75
2023-03-20T12:58:50.192Z,25.00
2023-03-20T13:01:22.038Z,23.75
2023-03-20T13:04:14.368Z,22.00
2023-03-20T13:06:59.095Z,22.25
2023-03-20T13:09:44.707Z,23.25
2023-03-20T13:12:24.701Z,26.75
2023-03-20T13:15:05.404Z,24.50
2023-03-20T13:17:35.813Z,22.00
2023-03-20T13:20:27.678Z,25.50
2023-03-20T13:23:10.504Z,23.25
2023-03-20T13:26:00.877Z,23.50
2023-03-20T13:28:47.173Z,27.25
2023-03-20T13:31:34.404Z,24.00
2023-03-20T13:34:31.704Z,25.00
2023-03-20T13:37:23.729Z,26.75
2023-03-20T13:40:13.495Z,24.00
2023-03-20T13:42:49.524Z,25.00
2023-03-20T13:45:41.247Z,22.50
2023-03-20T13:48:26.956Z,26.75
2023-03-20T13:51:07.874Z,27.00
2023-03-20T13:54:03.033Z,31.50
2023-03-20T13:56:44.280Z,27.00
2023-03-20T13:59:38.251Z,30.00
2023-03-20T14:02:21.770Z,26.00
2023-03-20T14:05:03.715Z,28.50
2023-03-20T14:07:37.450Z,13.25
2023-03-20T14:10:37.525Z,27.00
2023-03-20T14:13:11.601Z,29.75
2023-03-20T14:15:57.934Z,30.00
2023-03-20T14:18:26.636Z,31.25
2023-03-20T14:21:04.581Z,30.00
2023-03-20T14:23:39.372Z,30.75
2023-03-20T14:26:18.315Z,33.25
2023-03-20T14:28:54.557Z,31.50
2023-03-20T14:31:31.097Z,31.00
2023-03-20T14:34:18.377Z,29.25
2023-03-20T14:36:51.878Z,14.75
2023-03-20T14:39:54.057Z,33.50
2023-03-20T14:42:48.227Z,31.00
2023-03-20T14:45:43.747Z,32.25
2023-03-20T14:48:46.291Z,25.25
2023-03-20T14:51:19.408Z,36.00
2023-03-20T14:53:58.754Z,32.67
2023-03-20T14:56:33.353Z,32.00
2023-03-20T14:59:07.318Z,30.00
2023-03-20T15:01:38.183Z,36.50
2023-03-20T15:04:28.194Z,35.75
2023-03-20T15:07:12.319Z,34.25
2023-03-20T15:09:44.596Z,38.50
2023-03-20T15:12:23.795Z,37.50
2023-03-20T15:14:59.500Z,34.50
2023-03-20T15:17:37.320Z,36.00
2023-03-20T15:20:16.611Z,38.00
2023-03-20T15:22:58.533Z,34.25
2023-03-20T15:25:32.768Z,39.50
2023-03-20T15:28:05.904Z,34.75
2023-03-20T15:30:38.112Z,36.75
2023-03-20T15:33:06.744Z,26.00
2023-03-20T15:35:34.420Z,38.00
2023-03-20T15:38:07.509Z,38.75
2023-03-20T15:40:50.493Z,38.00
2023-03-20T15:43:22.867Z,36.00
2023-03-20T15:46:02.917Z,48.00
2023-03-20T15:48:37.702Z,42.00
2023-03-20T15:51:11.549Z,40.25
2023-03-20T15:53:40.913Z,37.00
2023-03-20T15:56:18.255Z,36.25
2023-03-20T15:58:50.589Z,39.00
2023-03-20T16:01:23.978Z,37.25
2023-03-20T16:03:52.965Z,39.75
2023-03-20T16:06:24.448Z,40.00
2023-03-20T16:09:05.287Z,36.50
2023-03-20T16:11:40.797Z,40.50
2023-03-20T16:14:26.283Z,40.00
2023-03-20T16:16:56.216Z,39.25
2023-03-20T16:19:26.436Z,42.25
2023-03-20T16:21:58.603Z,36.25
2023-03-20T16:24:38.390Z,30.75
2023-03-20T16:27:09.081Z,39.25
2023-03-20T16:29:42.354Z,39.25
2023-03-20T16:32:30.597Z,39.00
2023-03-20T16:34:59.474Z,39.75
2023-03-20T16:37:31.972Z,39.50
2023-03-20T16:40:18.346Z,44.00
2023-03-20T16:42:46.616Z,44.00
2023-03-20T16:45:30.428Z,40.50
2023-03-20T16:48:26.122Z,43.25
2023-03-20T16:51:07.698Z,45.25
2023-03-20T16:53:44.809Z,41.25
2023-03-20T16:56:22.787Z,39.00
2023-03-20T16:58:50.318Z,39.75
2023-03-20T17:01:29.018Z,41.50
2023-03-20T17:04:11.394Z,38.75
2023-03-20T17:06:46.241Z,33.75
2023-03-20T17:09:13.716Z,38.00
2023-03-20T17:11:47.962Z,36.75
2023-03-20T17:14:20.781Z,37.75
2023-03-20T17:16:51.338Z,30.00
2023-03-20T17:19:19.365Z,39.25
2023-03-20T17:21:47.839Z,37.00
2023-03-20T17:24:17.390Z,49.25
2023-03-20T17:26:52.639Z,44.50
2023-03-20T17:29:20.430Z,48.00
2023-03-20T17:31:48.003Z,44.75
2023-03-20T17:34:15.578Z,39.75
2023-03-20T17:36:43.268Z,41.75
2023-03-20T17:39:21.068Z,37.25
2023-03-20T17:41:48.946Z,43.75
2023-03-20T17:44:16.404Z,42.50
2023-03-20T17:47:03.696Z,47.00
2023-03-20T17:49:33.905Z,53.75
2023-03-20T17:52:01.372Z,56.50
2023-03-20T17:54:33.092Z,55.00
2023-03-20T17:57:01.660Z,56.75
2023-03-20T17:59:31.257Z,54.50
2023-03-20T18:01:58.812Z,52.75
2023-03-20T18:04:27.175Z,55.00
2023-03-20T18:06:57.997Z,57.75
2023-03-20T18:09:26.188Z,49.00
2023-03-20T18:11:55.336Z,54.25
2023-03-20T18:14:26.237Z,56.50
2023-03-20T18:16:53.775Z,51.25
2023-03-20T18:19:25.776Z,54.75
2023-03-20T18:21:55.042Z,40.00
2023-03-20T18:24:23.389Z,58.25
2023-03-20T18:26:52.031Z,50.25
2023-03-20T18:29:20.505Z,57.00
2023-03-20T18:31:49.500Z,55.50
2023-03-20T18:34:18.662Z,58.25
2023-03-20T18:36:46.498Z,54.00
2023-03-20T18:39:24.122Z,52.00
2023-03-20T18:41:52.458Z,55.00
2023-03-20T18:44:19.995Z,53.00
2023-03-20T18:46:47.590Z,53.00
2023-03-20T18:49:17.423Z,51.50
2023-03-20T18:51:46.991Z,53.50
2023-03-20T18:54:15.689Z,51.00
2023-03-20T18:56:44.752Z,53.75
2023-03-20T18:59:13.203Z,55.75
2023-03-20T19:01:41.298Z,55.50
2023-03-20T19:04:19.674Z,51.75
2023-03-20T19:06:48.739Z,53.75
2023-03-20T19:09:18.256Z,45.75
2023-03-20T19:11:47.385Z,54.25
2023-03-20T19:14:15.027Z,54.25
2023-03-20T19:16:43.112Z,50.25
2023-03-20T19:19:15.976Z,50.75
2023-03-20T19:21:43.667Z,53.75
2023-03-20T19:24:16.052Z,52.00
2023-03-20T19:26:43.566Z,54.50
2023-03-20T19:29:13.951Z,52.75
2023-03-20T19:31:43.494Z,54.50
2023-03-20T19:34:28.052Z,55.75
2023-03-20T19:37:06.592Z,67.33
2023-03-20T19:39:34.117Z,60.33
2023-03-20T19:42:19.868Z,61.00
2023-03-20T19:45:09.796Z,62.67
2023-03-20T19:47:39.692Z,63.33
2023-03-20T19:50:34.083Z,64.33
2023-03-20T19:53:12.741Z,56.75
2023-03-20T19:55:40.653Z,64.00
2023-03-20T19:58:08.481Z,56.50
2023-03-20T20:01:11.639Z,63.67
2023-03-20T20:03:27.863Z,54.25
2023-03-20T20:06:02.377Z,65.33
2023-03-20T20:08:45.185Z,57.00
2023-03-20T20:11:16.232Z,56.25
2023-03-20T20:14:04.205Z,56.50
2023-03-20T20:16:31.632Z,55.00
2023-03-20T20:19:04.301Z,52.50
2023-03-20T20:24:22.633Z,51.75
2023-03-20T20:27:15.324Z,54.25
2023-03-20T20:29:47.895Z,50.25
2023-03-20T20:32:16.219Z,50.50
2023-03-20T20:40:21.057Z,60.67
2023-03-20T20:42:52.065Z,56.00
2023-03-20T20:45:28.072Z,48.75
2023-03-20T20:47:57.297Z,54.50
2023-03-20T20:50:28.539Z,55.50
2023-03-20T20:52:56.964Z,51.33
2023-03-20T20:55:25.741Z,57.00
2023-03-20T20:57:55.864Z,52.50
2023-03-20T21:00:37.113Z,52.00
2023-03-20T21:03:13.118Z,52.50
2023-03-20T21:05:43.478Z,57.00
2023-03-20T21:08:13.531Z,56.75
2023-03-20T21:10:41.133Z,50.50
2023-03-20T21:13:08.736Z,53.50
2023-03-20T21:15:37.419Z,52.00
2023-03-20T21:18:05.369Z,54.67
2023-03-20T21:20:33.762Z,53.50
2023-03-20T21:23:01.341Z,52.75
2023-03-20T21:25:39.687Z,55.00
2023-03-20T21:28:09.610Z,62.00
2023-03-20T21:30:44.154Z,57.33
2023-03-20T21:33:24.002Z,57.33
2023-03-20T21:35:52.813Z,55.00
2023-03-20T21:41:10.160Z,51.33
2023-03-20T21:43:38.170Z,55.00
2023-03-20T21:55:05.301Z,53.00
2023-03-20T21:57:55.732Z,57.00
2023-03-20T22:02:58.248Z,53.67
2023-03-20T22:06:02.545Z,49.00
2023-03-20T22:14:51.667Z,57.33
2023-03-20T22:20:15.234Z,57.00
2023-03-20T22:25:56.017Z,58.33
2023-03-20T22:37:17.092Z,58.67
2023-03-20T22:39:54.438Z,49.67
2023-03-20T22:45:00.628Z,60.00
2023-03-20T22:47:31.033Z,53.67
2023-03-20T22:49:58.965Z,57.00
2023-03-20T22:52:38.101Z,57.33
2023-03-20T22:55:10.049Z,57.00
2023-03-20T22:57:45.581Z,55.33
2023-03-20T23:00:25.220Z,58.67
2023-03-20T23:02:57.340Z,57.67
2023-03-20T23:05:31.224Z,54.67
2023-03-20T23:07:59.000Z,49.00
2023-03-20T23:10:26.816Z,54.67
2023-03-20T23:12:54.304Z,59.33
2023-03-20T23:15:21.687Z,56.33
2023-03-20T23:17:50.367Z,57.67
2023-03-20T23:20:24.185Z,58.33
2023-03-20T23:22:52.009Z,55.00
2023-03-20T23:25:30.989Z,52.33
2023-03-20T23:28:07.297Z,59.33
2023-03-20T23:30:46.541Z,56.33
2023-03-20T23:33:19.497Z,62.33
2023-03-20T23:35:48.366Z,58.33
2023-03-20T23:38:15.971Z,57.00
2023-03-20T23:40:49.359Z,61.67
2023-03-20T23:43:17.166Z,62.00
2023-03-20T23:45:45.858Z,55.33
2023-03-20T23:48:15.877Z,61.67
2023-03-20T23:50:52.631Z,58.67
2023-03-20T23:53:22.134Z,55.33
2023-03-20T23:55:52.225Z,58.67
2023-03-20T23:58:25.231Z,59.00
